Time;durP1;ratioP1;P1;durP2;ratioP2;P2;SDS_P1;SDS_P2;PMS_P1;PMS_P2;Temp;Humidity;BMP_temperature;BMP_pressure;BME280_temperature;BME280_humidity;BME280_pressure;Samples;Min_cycle;Max_cycle;Signal;HPM_P1;HPM_P2
2021/12/21 00:01:29;;;;;;;;;4.00;3.80;;;;;-1.97;87.82;101016.13;5094743;28;8911;-64
2021/12/21 00:03:57;;;;;;;;;7.40;6.20;;;;;-1.99;87.97;101018.75;5094065;28;8856;-64
2021/12/21 00:06:25;;;;;;;;;7.20;6.00;;;;;-1.97;88.32;101018.75;5093535;28;8842;-64
2021/12/21 00:11:57;;;;;;;;;6.60;5.20;;;;;-1.98;87.45;101011.78;5092250;28;8806;-64
2021/12/21 00:14:35;;;;;;;;;4.00;4.00;;;;;-2.00;87.90;101010.94;5093984;28;8838;-64
2021/12/21 00:17:13;;;;;;;;;3.20;3.20;;;;;-2.03;87.19;101009.25;5093357;28;8841;-64
2021/12/21 00:20:07;;;;;;;;;3.40;3.40;;;;;-2.05;87.49;101005.75;5093017;28;9102;-64
2021/12/21 00:25:17;;;;;;;;;2.20;1.80;;;;;-2.07;87.51;101006.66;5085687;28;8870;-64
2021/12/21 00:27:47;;;;;;;;;2.20;2.20;;;;;-2.08;88.13;101004.94;5092332;28;9207;-64
2021/12/21 00:30:14;;;;;;;;;1.80;1.80;;;;;-2.09;87.63;101011.91;5092986;28;8876;-64
2021/12/21 00:32:54;;;;;;;;;3.00;3.00;;;;;-2.09;87.98;101008.44;5092994;28;8988;-64
2021/12/21 00:35:31;;;;;;;;;1.60;1.60;;;;;-2.10;87.45;101006.72;5093335;28;9564;-64
2021/12/21 00:38:01;;;;;;;;;3.80;1.00;;;;;-2.11;87.36;101007.59;5073135;28;8856;-64
2021/12/21 00:46:40;;;;;;;;;3.00;3.00;;;;;-2.16;87.80;100999.81;5071310;28;8777;-64
2021/12/21 00:49:16;;;;;;;;;3.60;3.60;;;;;-2.20;87.30;100999.88;5072422;28;8921;-64
2021/12/21 00:51:43;;;;;;;;;1.00;0.60;;;;;-2.25;87.55;100996.44;5074035;28;8862;-64
2021/12/21 00:54:11;;;;;;;;;3.80;3.80;;;;;-2.30;87.78;100999.13;5072812;28;9515;-64
2021/12/21 00:56:39;;;;;;;;;1.00;1.00;;;;;-2.33;87.74;100990.47;5073714;28;8878;-64
2021/12/21 01:02:16;;;;;;;;;1.00;1.00;;;;;-2.44;87.29;100990.56;5071922;28;8920;-64
2021/12/21 01:04:47;;;;;;;;;2.60;1.00;;;;;-2.46;87.79;100986.25;5073497;28;9514;-64
2021/12/21 01:07:22;;;;;;;;;1.00;1.00;;;;;-2.48;87.84;100988.91;5072376;28;8836;-64
2021/12/21 01:10:38;;;;;;;;;2.20;2.20;;;;;-2.49;88.17;100981.94;5073358;28;8854;-64
2021/12/21 01:13:14;;;;;;;;;1.80;1.80;;;;;-2.50;87.36;100977.59;5070587;28;8893;-63
2021/12/21 01:15:59;;;;;;;;;3.80;2.60;;;;;-2.50;87.89;100984.56;5073063;28;8909;-64
2021/12/21 01:22:02;;;;;;;;;3.20;3.00;;;;;-2.52;88.36;100981.09;5072042;28;8813;-64
2021/12/21 01:24:49;;;;;;;;;4.40;3.60;;;;;-2.53;87.63;100974.16;5072406;28;8832;-64
2021/12/21 01:27:29;;;;;;;;;3.00;3.00;;;;;-2.55;88.08;100976.81;5073320;28;8850;-64
2021/12/21 01:33:09;;;;;;;;;1.40;1.00;;;;;-2.61;87.63;100965.56;5071913;28;8784;-63
2021/12/21 01:35:42;;;;;;;;;1.00;0.20;;;;;-2.61;88.26;100976.88;5072648;28;8868;-64
2021/12/21 01:38:21;;;;;;;;;5.20;5.20;;;;;-2.58;87.93;100970.75;5087116;28;8872;-64
2021/12/21 01:41:00;;;;;;;;;1.00;1.00;;;;;-2.55;87.91;100969.00;5091845;28;8860;-64
2021/12/21 01:43:34;;;;;;;;;0.00;0.00;;;;;-2.55;87.97;100971.59;5091501;28;8850;-64
2021/12/21 01:54:41;;;;;;;;;1.00;1.00;;;;;-2.60;87.73;100964.69;5091027;28;8774;-64
2021/12/21 02:00:32;;;;;;;;;1.40;1.00;;;;;-2.66;87.53;100972.59;5040962;28;8794;-64
2021/12/21 02:06:08;;;;;;;;;1.40;1.40;;;;;-2.68;88.34;100959.56;5090251;28;8815;-64
2021/12/21 02:14:34;;;;;;;;;1.00;1.00;;;;;-2.66;87.80;100959.56;5092366;28;8826;-64
2021/12/21 02:17:18;;;;;;;;;2.20;1.40;;;;;-2.66;88.39;100955.19;5091795;28;8873;-64
2021/12/21 02:19:52;;;;;;;;;0.00;0.00;;;;;-2.64;87.83;100955.19;5093175;28;8833;-64
2021/12/21 02:25:50;;;;;;;;;3.80;3.40;;;;;-2.68;87.92;100954.34;5090406;28;8767;-64
2021/12/21 02:34:36;;;;;;;;;0.00;0.00;;;;;-2.75;87.91;100955.28;5091242;28;8799;-64
2021/12/21 02:37:04;;;;;;;;;3.80;3.00;;;;;-2.77;87.47;100956.19;5091944;28;9604;-64
2021/12/21 02:43:00;;;;;;;;;1.00;1.00;;;;;-2.79;87.53;100952.72;5091602;28;8719;-64
2021/12/21 02:45:28;;;;;;;;;3.40;3.00;;;;;-2.81;87.74;100959.72;5091816;28;8830;-64
2021/12/21 02:47:56;;;;;;;;;3.00;3.00;;;;;-2.81;87.90;100957.94;5091976;28;8842;-64
2021/12/21 02:53:33;;;;;;;;;0.00;0.00;;;;;-2.81;88.04;100957.09;5091353;28;8802;-64
2021/12/21 03:01:50;;;;;;;;;5.60;5.60;;;;;-2.82;87.61;100963.16;5091059;28;8838;-64
2021/12/21 03:04:18;;;;;;;;;3.00;3.00;;;;;-2.84;87.91;100962.31;5091118;28;8838;-64
2021/12/21 03:09:58;;;;;;;;;1.00;1.00;;;;;-2.90;87.12;100960.66;5090362;28;8803;-64
2021/12/21 03:13:53;;;;;;;;;2.60;2.60;;;;;-2.94;88.04;100958.09;5090454;28;8856;-64
2021/12/21 03:18:34;;;;;;;;;2.20;2.20;;;;;-3.02;87.37;100957.31;5069670;28;8773;-64
2021/12/21 03:21:02;;;;;;;;;3.40;3.40;;;;;-3.05;87.49;100960.78;5070975;28;8862;-64
2021/12/21 03:23:30;;;;;;;;;0.40;0.40;;;;;-3.08;87.97;100959.94;5070508;28;8848;-64
2021/12/21 03:25:58;;;;;;;;;3.00;3.00;;;;;-3.07;87.72;100959.94;5069969;28;8852;-64
2021/12/21 03:28:26;;;;;;;;;2.60;2.60;;;;;-3.06;87.63;100961.66;5070293;28;8840;-64
2021/12/21 03:34:02;;;;;;;;;2.60;2.60;;;;;-3.03;88.06;100951.22;5068935;28;9618;-64
2021/12/21 03:36:30;;;;;;;;;2.40;2.40;;;;;-3.05;87.64;100952.09;5070265;28;8978;-64
2021/12/21 03:39:03;;;;;;;;;4.00;3.80;;;;;-3.06;87.63;100939.97;5069806;28;8976;-64
2021/12/21 03:41:48;;;;;;;;;2.80;1.80;;;;;-3.06;87.84;100942.56;5068662;28;8926;-64
2021/12/21 03:44:16;;;;;;;;;1.40;1.40;;;;;-3.07;87.61;100938.22;5070796;28;8840;-64
2021/12/21 03:46:47;;;;;;;;;2.60;1.00;;;;;-3.06;88.21;100945.16;5070362;28;8866;-64
2021/12/21 03:52:25;;;;;;;;;2.60;2.60;;;;;-3.14;87.81;100941.75;5091101;28;8798;-64
2021/12/21 04:01:12;;;;;;;;;0.00;0.00;;;;;-3.25;87.20;100939.25;5089479;28;8782;-64
2021/12/21 04:03:39;;;;;;;;;0.00;0.00;;;;;-3.28;87.41;100943.63;5090615;28;8842;-64
2021/12/21 04:06:07;;;;;;;;;0.00;0.00;;;;;-3.30;87.30;100945.38;5090961;28;8927;-64
2021/12/21 04:08:35;;;;;;;;;0.00;0.00;;;;;-3.29;87.86;100952.31;5091514;28;9824;-64
2021/12/21 04:11:03;;;;;;;;;2.60;2.60;;;;;-3.30;88.11;100940.19;5091516;28;8976;-64
2021/12/21 04:13:31;;;;;;;;;1.00;1.00;;;;;-3.31;87.61;100938.44;5091364;28;8856;-64
2021/12/21 04:19:09;;;;;;;;;0.60;0.60;;;;;-3.31;88.09;100944.53;5094721;28;8786;-64
2021/12/21 04:24:45;;;;;;;;;2.00;0.20;;;;;-3.35;87.99;100936.72;5093106;28;8896;-64
2021/12/21 04:27:14;;;;;;;;;0.00;0.00;;;;;-3.37;87.93;100933.28;5093618;28;8845;-64
2021/12/21 04:29:42;;;;;;;;;0.20;0.20;;;;;-3.37;88.12;100930.69;5094868;28;8846;-64
2021/12/21 04:32:10;;;;;;;;;1.60;0.80;;;;;-3.38;87.44;100928.97;5093072;28;8854;-64
2021/12/21 04:34:38;;;;;;;;;0.40;0.40;;;;;-3.39;87.93;100927.25;5093004;28;8865;-64
2021/12/21 04:37:08;;;;;;;;;2.20;2.20;;;;;-3.42;88.00;100928.13;5092868;28;8868;-64
2021/12/21 04:39:41;;;;;;;;;0.40;0.40;;;;;-3.40;87.58;100936.78;5093210;28;8972;-64
2021/12/21 04:42:09;;;;;;;;;3.00;1.40;;;;;-3.41;87.68;100927.25;5093501;28;8930;-64
2021/12/21 04:44:36;;;;;;;;;1.40;1.00;;;;;-3.38;87.95;100928.97;5093840;28;8846;-64
2021/12/21 04:47:04;;;;;;;;;5.80;4.20;;;;;-3.37;88.06;100935.88;5092750;28;9387;-64
2021/12/21 04:49:32;;;;;;;;;2.40;1.60;;;;;-3.37;87.91;100928.97;5091966;28;8841;-64
2021/12/21 04:52:00;;;;;;;;;0.00;0.00;;;;;-3.37;88.15;100928.97;5093540;28;8834;-64
2021/12/21 04:54:28;;;;;;;;;1.00;1.00;;;;;-3.39;87.50;100924.63;5092465;28;8830;-64
2021/12/21 04:56:55;;;;;;;;;0.60;0.60;;;;;-3.39;87.57;100924.63;5092840;28;8850;-64
2021/12/21 04:59:23;;;;;;;;;1.00;1.00;;;;;-3.41;87.65;100908.19;5093349;28;8851;-64
2021/12/21 05:01:52;;;;;;;;;1.00;1.00;;;;;-3.40;87.44;100913.34;5090378;28;8850;-63
2021/12/21 05:04:20;;;;;;;;;3.00;3.00;;;;;-3.38;87.60;100901.22;5092580;28;8857;-64
2021/12/21 05:06:52;;;;;;;;;1.00;1.00;;;;;-3.38;87.66;100908.13;5092300;28;8846;-64
2021/12/21 05:09:25;;;;;;;;;1.00;1.00;;;;;-3.36;88.40;100899.44;5090902;28;8858;-64
2021/12/21 05:15:02;;;;;;;;;1.00;1.00;;;;;-3.29;88.26;100913.25;5091895;28;8802;-64
2021/12/21 05:17:30;;;;;;;;;0.20;0.20;;;;;-3.27;88.06;100914.97;5091929;28;8868;-64
2021/12/21 05:19:58;;;;;;;;;1.40;1.00;;;;;-3.27;87.55;100919.34;5091506;28;8850;-64
2021/12/21 05:22:26;;;;;;;;;4.80;4.00;;;;;-3.29;87.49;100923.66;5091205;28;8883;-63
2021/12/21 05:31:09;;;;;;;;;6.00;6.00;;;;;-3.26;87.56;100923.66;5091480;28;8794;-64
2021/12/21 05:33:36;;;;;;;;;1.00;1.00;;;;;-3.26;87.45;100921.91;5089581;28;8818;-64
2021/12/21 05:36:04;;;;;;;;;3.00;2.20;;;;;-3.26;87.63;100918.47;5091533;28;9619;-64
2021/12/21 05:44:52;;;;;;;;;1.40;1.40;;;;;-3.36;87.18;100922.88;5089657;28;8771;-63
2021/12/21 05:47:20;;;;;;;;;0.60;0.60;;;;;-3.40;87.58;100928.97;5091654;28;8849;-63
2021/12/21 05:49:48;;;;;;;;;3.20;3.20;;;;;-3.44;87.76;100929.00;5091164;28;8868;-63
2021/12/21 05:52:15;;;;;;;;;0.60;0.60;;;;;-3.47;87.07;100934.25;5091298;28;8856;-63
2021/12/21 05:54:43;;;;;;;;;0.00;0.00;;;;;-3.49;87.41;100936.00;5090731;28;8852;-63
2021/12/21 05:57:11;;;;;;;;;1.00;1.00;;;;;-3.53;87.66;100932.56;5091033;28;8935;-63
2021/12/21 05:59:39;;;;;;;;;0.60;0.60;;;;;-3.55;87.44;100933.44;5091492;28;8845;-64
2021/12/21 06:02:06;;;;;;;;;3.00;3.00;;;;;-3.57;87.52;100932.59;5090308;28;8848;-64
2021/12/21 06:04:34;;;;;;;;;1.40;1.40;;;;;-3.60;87.39;100941.28;5091414;28;8978;-64
2021/12/21 06:07:02;;;;;;;;;3.40;3.40;;;;;-3.60;87.52;100932.59;5089277;28;8989;-64
2021/12/21 06:09:30;;;;;;;;;0.00;0.00;;;;;-3.61;87.26;100933.47;5086601;28;8927;-64
2021/12/21 06:12:07;;;;;;;;;2.20;1.80;;;;;-3.64;87.08;100930.91;5087364;28;8829;-64
2021/12/21 06:14:58;;;;;;;;;0.00;0.00;;;;;-3.64;87.05;100938.72;5079523;28;8866;-63
2021/12/21 06:26:08;;;;;;;;;1.00;1.00;;;;;-3.71;87.62;100934.44;5084297;28;9214;-64
2021/12/21 06:34:19;;;;;;;;;1.40;1.40;;;;;-3.74;87.27;100937.91;5033269;28;8806;-63
2021/12/21 06:36:47;;;;;;;;;0.80;0.20;;;;;-3.75;87.68;100941.38;5086131;28;8972;-64
2021/12/21 06:39:19;;;;;;;;;1.80;1.80;;;;;-3.74;87.74;100942.22;5083984;28;8914;-64
2021/12/21 06:41:47;;;;;;;;;3.40;3.40;;;;;-3.69;87.81;100937.88;5084299;28;8858;-64
2021/12/21 06:44:16;;;;;;;;;1.40;1.00;;;;;-3.68;87.75;100937.88;5084610;28;8850;-64
2021/12/21 06:58:33;;;;;;;;;0.40;0.40;;;;;-3.71;87.83;100939.63;5080738;28;8791;-63
2021/12/21 07:01:00;;;;;;;;;1.00;1.00;;;;;-3.73;87.26;100941.34;5080781;28;8924;-63
2021/12/21 07:03:28;;;;;;;;;0.80;0.80;;;;;-3.74;87.60;100948.31;5082249;28;8850;-63
2021/12/21 07:05:56;;;;;;;;;2.20;1.80;;;;;-3.75;88.19;100945.72;5080595;28;9519;-63
2021/12/21 07:08:28;;;;;;;;;3.80;3.80;;;;;-3.76;87.41;100946.59;5079150;28;8858;-64
2021/12/21 07:11:08;;;;;;;;;1.40;1.40;;;;;-3.77;87.78;100952.66;5084990;28;8978;-63
2021/12/21 07:19:06;;;;;;;;;3.00;3.00;;;;;-3.82;87.15;100955.28;5081301;28;8877;-63
2021/12/21 07:21:34;;;;;;;;;3.00;3.00;;;;;-3.85;86.85;100954.44;5080426;28;8841;-63
2021/12/21 07:24:02;;;;;;;;;0.60;0.60;;;;;-3.87;87.30;100951.84;5080149;28;8858;-63
2021/12/21 07:32:48;;;;;;;;;2.60;2.60;;;;;-3.93;87.17;100968.34;5080089;28;8794;-63
2021/12/21 07:35:16;;;;;;;;;0.20;0.20;;;;;-3.94;87.14;100959.72;5082798;28;8888;-63
2021/12/21 07:37:44;;;;;;;;;1.40;1.40;;;;;-3.95;87.88;100959.72;5079692;28;8857;-63
2021/12/21 07:40:12;;;;;;;;;0.40;0.40;;;;;-3.95;87.27;100964.91;5080736;28;8842;-63
2021/12/21 07:42:40;;;;;;;;;3.00;3.00;;;;;-3.95;87.38;100957.94;5075369;28;9150;-63
2021/12/21 07:45:26;;;;;;;;;1.80;1.80;;;;;-3.94;88.00;100959.72;5079129;28;8838;-63
2021/12/21 07:47:53;;;;;;;;;0.20;0.20;;;;;-3.94;87.72;100958.84;5079316;28;8846;-63
2021/12/21 07:50:21;;;;;;;;;0.40;0.40;;;;;-3.93;87.51;100966.63;5077478;28;8838;-63
2021/12/21 07:52:50;;;;;;;;;1.80;1.80;;;;;-3.92;87.59;100969.19;5080110;28;8880;-63
2021/12/21 07:55:18;;;;;;;;;2.60;2.60;;;;;-3.89;87.87;100960.53;5084112;28;9691;-63
2021/12/21 07:57:45;;;;;;;;;3.00;3.00;;;;;-3.87;87.83;100959.66;5079644;28;8863;-63
2021/12/21 08:00:13;;;;;;;;;0.00;0.00;;;;;-3.85;87.43;100962.25;5082639;28;8850;-63
2021/12/21 08:02:41;;;;;;;;;3.00;3.00;;;;;-3.84;87.35;100966.56;5080743;28;8860;-63
2021/12/21 08:05:09;;;;;;;;;4.80;4.80;;;;;-3.82;88.25;100970.03;5080436;28;8880;-63
2021/12/21 08:07:44;;;;;;;;;1.80;1.00;;;;;-3.79;87.74;100968.28;5083568;28;8887;-63
2021/12/21 08:10:20;;;;;;;;;1.00;1.00;;;;;-3.74;87.88;100969.13;5080299;28;9159;-63
2021/12/21 08:12:48;;;;;;;;;1.40;1.00;;;;;-3.72;87.37;100962.16;5080953;28;8841;-63
2021/12/21 08:15:15;;;;;;;;;1.00;1.00;;;;;-3.69;87.65;100956.09;5079557;28;8873;-63
2021/12/21 08:17:43;;;;;;;;;0.40;0.40;;;;;-3.66;87.79;100956.06;5076529;28;8869;-63
2021/12/21 08:20:11;;;;;;;;;1.80;1.80;;;;;-3.62;87.50;100963.81;5079956;28;9261;-63
2021/12/21 08:22:39;;;;;;;;;1.00;1.00;;;;;-3.57;87.83;100966.41;5080960;28;8838;-63
2021/12/21 08:25:07;;;;;;;;;1.00;1.00;;;;;-3.54;87.76;100958.59;5077331;28;8947;-63
2021/12/21 08:27:35;;;;;;;;;1.80;1.80;;;;;-3.48;87.31;100961.16;5077746;28;8912;-63
2021/12/21 08:30:02;;;;;;;;;1.80;1.80;;;;;-3.42;87.28;100966.31;5079872;28;8856;-63
2021/12/21 08:32:30;;;;;;;;;2.60;2.60;;;;;-3.37;87.50;100960.19;5078360;28;8850;-63
2021/12/21 08:34:58;;;;;;;;;2.60;1.00;;;;;-3.28;87.72;100964.44;5078384;28;8892;-63
2021/12/21 08:37:27;;;;;;;;;3.00;3.00;;;;;-3.18;87.71;100960.91;5077964;28;9127;-63
2021/12/21 08:39:55;;;;;;;;;1.00;1.00;;;;;-3.09;87.89;100953.03;5081682;28;8850;-63
2021/12/21 08:42:25;;;;;;;;;2.60;2.60;;;;;-3.03;87.85;100971.19;5079357;28;9246;-63
2021/12/21 08:44:53;;;;;;;;;1.40;1.40;;;;;-2.98;87.33;100964.19;5080921;28;9154;-63
2021/12/21 08:47:22;;;;;;;;;0.00;0.00;;;;;-2.93;87.62;100957.22;5076560;28;8845;-63
2021/12/21 08:49:50;;;;;;;;;5.20;4.00;;;;;-2.88;87.48;100950.22;5077189;28;8859;-63
2021/12/21 08:52:18;;;;;;;;;3.00;3.00;;;;;-2.84;87.27;100960.59;5075224;28;8857;-63
2021/12/21 08:54:46;;;;;;;;;4.00;4.00;;;;;-2.77;87.45;100958.78;5079426;28;8829;-63
2021/12/21 08:57:13;;;;;;;;;4.00;3.60;;;;;-2.72;87.68;100957.84;5078876;28;8834;-63
2021/12/21 08:59:41;;;;;;;;;3.60;3.60;;;;;-2.67;87.33;100958.69;5079277;28;8849;-63
2021/12/21 09:02:09;;;;;;;;;1.00;1.00;;;;;-2.60;86.87;100972.50;5074942;28;8845;-63
2021/12/21 09:04:39;;;;;;;;;1.60;0.80;;;;;-2.53;87.25;100976.78;5081103;28;9551;-63
2021/12/21 09:07:06;;;;;;;;;1.40;1.40;;;;;-2.46;87.49;100968.88;5079645;28;8845;-63
2021/12/21 09:09:34;;;;;;;;;2.60;2.60;;;;;-2.43;87.01;100971.44;5076676;28;8834;-63
2021/12/21 09:12:02;;;;;;;;;5.60;5.20;;;;;-2.38;87.32;100968.78;5078451;28;9123;-63
2021/12/21 09:14:32;;;;;;;;;4.00;4.00;;;;;-2.31;87.05;100975.66;5079986;28;9185;-63
2021/12/21 09:17:00;;;;;;;;;4.00;4.00;;;;;-2.24;86.99;100966.88;5078631;28;8833;-63
2021/12/21 09:19:28;;;;;;;;;0.60;0.00;;;;;-2.18;87.09;100972.91;5078636;28;8865;-63
2021/12/21 09:21:59;;;;;;;;;3.60;3.60;;;;;-2.11;86.68;100960.66;5080309;28;9559;-63
2021/12/21 09:24:28;;;;;;;;;8.80;7.20;;;;;-2.00;86.76;100966.56;5072919;28;9714;-63
2021/12/21 09:26:56;;;;;;;;;4.20;3.60;;;;;-1.90;86.56;100958.63;5077774;28;8857;-63
2021/12/21 09:29:23;;;;;;;;;3.40;3.40;;;;;-1.81;86.48;100966.31;5077893;28;8850;-63
2021/12/21 09:31:51;;;;;;;;;5.60;5.60;;;;;-1.73;86.05;100961.00;5077185;28;9108;-63
2021/12/21 09:34:19;;;;;;;;;5.20;4.00;;;;;-1.62;86.47;100961.69;5074260;28;8857;-63
2021/12/21 09:36:47;;;;;;;;;8.60;7.80;;;;;-1.52;86.39;100958.94;5076332;28;8870;-62
2021/12/21 09:39:15;;;;;;;;;6.80;6.00;;;;;-1.44;86.31;100962.28;5076365;28;8964;-62
2021/12/21 09:41:43;;;;;;;;;4.80;4.60;;;;;-1.35;86.06;100959.56;5075581;28;8876;-62
2021/12/21 09:44:10;;;;;;;;;4.00;1.80;;;;;-1.25;86.37;100955.03;5074902;28;8842;-61
2021/12/21 09:46:38;;;;;;;;;6.60;6.60;;;;;-1.11;86.27;100968.75;5073251;28;9119;-62
2021/12/21 09:49:06;;;;;;;;;11.00;10.80;;;;;-0.94;86.00;100956.25;5071772;28;8856;-61
2021/12/21 09:51:34;;;;;;;;;8.60;6.20;;;;;-0.71;85.82;100962.81;5076612;28;8838;-61
2021/12/21 09:54:02;;;;;;;;;4.00;3.00;;;;;-0.31;85.31;100958.56;5075013;28;8849;-61
2021/12/21 09:56:30;;;;;;;;;3.60;3.60;;;;;0.36;83.61;100945.78;5077231;28;9162;-61
2021/12/21 09:58:57;;;;;;;;;7.00;6.60;;;;;1.15;81.89;100942.97;5077889;28;8858;-61
2021/12/21 10:01:25;;;;;;;;;4.00;3.00;;;;;1.85;80.99;100930.53;5075205;28;8841;-61
2021/12/21 10:03:53;;;;;;;;;2.20;1.80;;;;;2.49;80.84;100929.47;5073404;28;8842;-61
2021/12/21 10:06:21;;;;;;;;;1.80;1.80;;;;;3.19;79.76;100921.84;5071532;28;9741;-61
2021/12/21 10:08:48;;;;;;;;;1.80;1.80;;;;;3.72;79.22;100912.91;5075566;28;8849;-61
2021/12/21 10:11:18;;;;;;;;;1.00;1.00;;;;;4.15;78.54;100911.28;5071190;28;9134;-61
2021/12/21 10:13:46;;;;;;;;;6.00;6.00;;;;;4.59;78.44;100913.06;5072390;28;9147;-62
2021/12/21 10:16:13;;;;;;;;;5.60;4.00;;;;;5.11;77.80;100910.00;5073007;28;8841;-62
2021/12/21 10:18:42;;;;;;;;;4.00;4.00;;;;;5.75;76.83;100908.91;5066829;28;8842;-62
2021/12/21 10:21:09;;;;;;;;;4.80;4.80;;;;;6.33;76.28;100904.50;5071039;28;8875;-62
2021/12/21 10:23:37;;;;;;;;;8.60;6.80;;;;;6.51;75.27;100903.63;5071387;28;9219;-62
2021/12/21 10:26:05;;;;;;;;;6.40;6.40;;;;;6.54;75.17;100899.03;5072488;28;8862;-62
2021/12/21 10:28:32;;;;;;;;;10.00;10.00;;;;;6.27;76.15;100910.06;5072079;28;8872;-62
2021/12/21 10:31:00;;;;;;;;;8.00;5.60;;;;;6.13;76.77;100908.06;5071746;28;8846;-63
2021/12/21 10:33:28;;;;;;;;;6.60;6.00;;;;;6.27;76.53;100895.06;5068646;28;8853;-62
2021/12/21 10:35:56;;;;;;;;;6.20;6.20;;;;;6.56;75.83;100896.31;5076391;28;8874;-62
2021/12/21 10:38:23;;;;;;;;;6.40;6.00;;;;;6.73;75.21;100888.41;5074910;28;8850;-62
2021/12/21 10:40:51;;;;;;;;;8.60;8.20;;;;;6.65;76.42;100893.22;5076818;28;8850;-62
2021/12/21 10:43:19;;;;;;;;;8.20;8.20;;;;;6.71;76.59;100882.34;5076442;28;8842;-62
2021/12/21 10:45:47;;;;;;;;;9.40;9.40;;;;;7.19;76.10;100866.69;5077822;28;8846;-62
2021/12/21 10:48:16;;;;;;;;;4.00;4.00;;;;;7.75;74.71;100874.22;5074222;28;8837;-62
2021/12/21 10:50:44;;;;;;;;;5.20;4.80;;;;;8.33;73.01;100875.47;5078311;28;8988;-62
2021/12/21 10:53:12;;;;;;;;;7.00;7.00;;;;;8.79;71.95;100869.25;5078425;28;8848;-62
2021/12/21 10:55:40;;;;;;;;;6.20;6.00;;;;;9.08;71.97;100856.94;5074716;28;8879;-62
2021/12/21 10:58:08;;;;;;;;;6.75;6.75;;;;;9.20;72.16;100845.59;5075779;28;9119;-62
2021/12/21 11:00:36;;;;;;;;;7.00;7.00;;;;;9.08;72.94;100848.97;5075578;28;8858;-62
2021/12/21 11:03:04;;;;;;;;;6.00;5.00;;;;;9.00;73.37;100849.44;5077055;28;8830;-63
2021/12/21 11:05:35;;;;;;;;;6.25;5.00;;;;;9.18;72.57;100836.88;5073786;28;8869;-63
2021/12/21 11:08:06;;;;;;;;;0.00;0.00;;;;;9.50;71.37;100833.94;5074818;28;9178;-63
2021/12/21 11:10:35;;;;;;;;;7.00;7.00;;;;;9.79;71.12;100829.53;5074255;28;9242;-62
2021/12/21 11:13:08;;;;;;;;;11.00;10.00;;;;;10.08;70.58;100829.44;5074454;28;8858;-63
2021/12/21 11:15:37;;;;;;;;;6.75;6.25;;;;;10.33;70.19;100832.22;5080636;28;8880;-63
2021/12/21 11:18:04;;;;;;;;;11.50;11.00;;;;;10.43;70.13;100822.69;5074244;28;8838;-63
2021/12/21 11:20:32;;;;;;;;;15.00;14.00;;;;;10.28;70.60;100815.72;5075722;28;8983;-63
2021/12/21 11:23:00;;;;;;;;;9.25;8.00;;;;;10.13;71.31;100824.69;5076560;28;8865;-63
2021/12/21 11:25:28;;;;;;;;;9.25;8.00;;;;;10.11;71.50;100815.06;5075980;28;8946;-63
2021/12/21 11:27:55;;;;;;;;;9.50;9.50;;;;;10.11;71.73;100818.56;5077804;28;8920;-63
2021/12/21 11:30:24;;;;;;;;;9.75;9.00;;;;;10.13;71.52;100819.34;5074308;28;8895;-63
2021/12/21 11:32:52;;;;;;;;;10.50;10.00;;;;;10.12;71.69;100808.78;5075791;28;8852;-63
2021/12/21 11:38:05;;;;;;;;;6.50;6.00;;;;;10.26;71.31;100804.28;5058625;28;8870;-63
2021/12/21 11:40:33;;;;;;;;;10.50;9.25;;;;;10.37;71.06;100799.13;5053750;28;8874;-63
2021/12/21 11:43:00;;;;;;;;;9.25;8.00;;;;;10.38;70.92;100800.84;5050341;28;9155;-63
2021/12/21 11:45:32;;;;;;;;;6.25;6.00;;;;;10.17;71.57;100791.56;5051198;28;8858;-62
2021/12/21 11:48:00;;;;;;;;;9.75;9.75;;;;;9.94;72.39;100792.16;5050679;28;9001;-63
2021/12/21 11:50:28;;;;;;;;;6.75;6.75;;;;;9.76;73.19;100788.00;5050293;28;8854;-63
2021/12/21 11:52:56;;;;;;;;;12.00;9.50;;;;;9.52;73.36;100794.00;5050981;28;8830;-63
2021/12/21 11:55:24;;;;;;;;;9.50;9.50;;;;;9.22;74.29;100791.41;5054676;28;8862;-63
2021/12/21 11:57:52;;;;;;;;;9.50;9.50;;;;;9.05;74.48;100788.91;5053104;28;8854;-63
2021/12/21 12:00:19;;;;;;;;;8.00;8.00;;;;;8.99;74.57;100783.09;5053509;28;8996;-63
2021/12/21 12:02:47;;;;;;;;;14.00;12.50;;;;;8.88;74.54;100782.91;5053678;28;8862;-63
2021/12/21 12:05:15;;;;;;;;;7.50;7.50;;;;;8.56;75.43;100778.59;5054765;28;9524;-63
2021/12/21 12:07:43;;;;;;;;;6.00;6.00;;;;;8.32;75.28;100786.19;5056642;28;9009;-63
2021/12/21 12:10:11;;;;;;;;;9.00;9.00;;;;;8.19;75.07;100781.66;5053939;28;8862;-63
2021/12/21 12:12:39;;;;;;;;;6.75;6.25;;;;;7.90;76.03;100788.56;5053947;28;9539;-63
2021/12/21 12:15:07;;;;;;;;;12.60;12.00;;;;;7.63;76.89;100788.34;5055530;28;8865;-63
2021/12/21 12:17:34;;;;;;;;;13.00;10.80;;;;;7.52;77.24;100785.44;5054351;28;9524;-64
2021/12/21 12:20:05;;;;;;;;;6.80;6.80;;;;;7.42;76.98;100782.41;5058131;28;9181;-63
2021/12/21 12:22:32;;;;;;;;;8.40;8.40;;;;;7.26;77.29;100799.19;5052495;28;8858;-63
2021/12/21 12:25:03;;;;;;;;;9.40;9.40;;;;;6.97;78.21;100790.09;5055104;28;8877;-63
2021/12/21 12:27:31;;;;;;;;;8.80;7.00;;;;;6.55;79.76;100796.72;5056654;28;8872;-63
2021/12/21 12:29:58;;;;;;;;;6.00;4.00;;;;;6.33;80.14;100796.94;5057181;28;9088;-63
2021/12/21 12:32:26;;;;;;;;;9.00;8.20;;;;;6.25;80.12;100795.56;5057301;28;9167;-63
2021/12/21 12:34:54;;;;;;;;;7.60;7.00;;;;;6.21;80.06;100794.03;5056571;28;8846;-63
2021/12/21 12:37:22;;;;;;;;;10.00;9.40;;;;;6.08;79.51;100793.72;5071114;28;8857;-63
2021/12/21 12:39:50;;;;;;;;;4.00;4.00;;;;;5.88;80.03;100800.91;5081424;28;8842;-63
2021/12/21 12:42:17;;;;;;;;;7.40;7.00;;;;;5.62;80.75;100790.66;5079940;28;8892;-63
2021/12/21 12:44:46;;;;;;;;;4.00;3.80;;;;;5.41;81.16;100792.47;5083290;28;8862;-63
2021/12/21 12:47:13;;;;;;;;;9.80;9.20;;;;;5.26;81.08;100794.94;5078569;28;8853;-63
2021/12/21 12:49:41;;;;;;;;;3.20;3.20;;;;;5.12;81.61;100786.78;5077206;28;8972;-63
2021/12/21 12:52:09;;;;;;;;;9.60;8.20;;;;;5.00;81.94;100782.03;5080060;28;9480;-63
2021/12/21 12:54:37;;;;;;;;;6.20;4.80;;;;;4.86;81.81;100780.00;5080628;28;8841;-63
2021/12/21 12:57:05;;;;;;;;;11.60;10.80;;;;;4.77;82.16;100774.25;5079354;28;8864;-63
2021/12/21 12:59:32;;;;;;;;;8.60;8.60;;;;;4.69;81.90;100779.00;5081167;28;9492;-63
2021/12/21 13:02:02;;;;;;;;;5.60;5.60;;;;;4.70;81.93;100778.06;5080999;28;8838;-63
2021/12/21 13:04:30;;;;;;;;;2.20;2.20;;;;;4.71;81.37;100777.16;5063503;28;9782;-63
2021/12/21 13:06:58;;;;;;;;;8.60;7.40;;;;;4.68;81.47;100774.66;5058907;28;8868;-63
2021/12/21 13:09:26;;;;;;;;;7.00;7.00;;;;;4.66;81.40;100787.06;5059975;28;8979;-63
2021/12/21 13:11:54;;;;;;;;;6.40;6.40;;;;;4.70;81.28;100780.69;5061250;28;8832;-63
2021/12/21 13:14:22;;;;;;;;;11.20;9.80;;;;;4.83;80.49;100779.28;5060235;28;8917;-63
2021/12/21 13:16:51;;;;;;;;;10.00;7.60;;;;;4.95;80.01;100782.22;5059993;28;8844;-63
2021/12/21 13:19:19;;;;;;;;;8.60;7.80;;;;;5.02;80.00;100773.13;5057012;28;9121;-63
2021/12/21 13:21:54;;;;;;;;;7.00;7.00;;;;;5.03;79.47;100774.84;5056763;28;8864;-63
2021/12/21 13:24:22;;;;;;;;;12.00;9.20;;;;;5.06;79.73;100779.13;5058348;28;9167;-63
2021/12/21 13:26:51;;;;;;;;;10.20;7.80;;;;;5.07;80.22;100772.91;5061356;28;8910;-63
2021/12/21 13:29:19;;;;;;;;;12.00;9.20;;;;;5.06;79.83;100771.22;5058816;28;8848;-63
2021/12/21 13:31:48;;;;;;;;;8.20;6.00;;;;;5.04;79.75;100775.69;5056245;28;8876;-63
2021/12/21 13:34:16;;;;;;;;;9.20;9.00;;;;;5.03;79.74;100782.75;5061249;28;8916;-63
2021/12/21 13:36:45;;;;;;;;;7.00;6.60;;;;;4.99;79.59;100786.47;5062264;28;9510;-63
2021/12/21 13:39:13;;;;;;;;;8.60;8.20;;;;;4.95;79.87;100773.47;5062432;28;8974;-63
2021/12/21 13:41:40;;;;;;;;;10.00;9.80;;;;;4.90;79.81;100783.34;5058657;28;9293;-63
2021/12/21 13:44:08;;;;;;;;;9.20;8.00;;;;;4.81;79.78;100778.47;5058420;28;8936;-63
2021/12/21 13:46:36;;;;;;;;;12.60;11.20;;;;;4.75;80.17;100778.75;5058440;28;8862;-63
2021/12/21 13:49:04;;;;;;;;;8.20;6.20;;;;;4.64;80.04;100786.25;5062559;28;9162;-63
2021/12/21 13:51:32;;;;;;;;;9.80;9.20;;;;;4.54;79.99;100787.53;5060804;28;8871;-63
2021/12/21 13:54:00;;;;;;;;;8.20;7.80;;;;;4.43;80.12;100789.78;5060429;28;9170;-63
2021/12/21 13:56:29;;;;;;;;;9.20;7.40;;;;;4.30;80.68;100788.56;5058070;28;8921;-63
2021/12/21 13:58:57;;;;;;;;;12.00;9.80;;;;;4.13;81.08;100796.31;5059032;28;9268;-63
2021/12/21 14:01:25;;;;;;;;;10.40;7.80;;;;;4.05;80.97;100798.38;5056773;28;8844;-63
2021/12/21 14:03:54;;;;;;;;;12.20;11.20;;;;;3.96;80.66;100799.59;5061517;28;8832;-63
2021/12/21 14:06:23;;;;;;;;;11.00;10.80;;;;;3.82;80.69;100804.53;5059697;28;8852;-63
2021/12/21 14:08:50;;;;;;;;;14.20;12.00;;;;;3.66;81.43;100797.28;5058535;28;8854;-63
2021/12/21 14:11:18;;;;;;;;;10.00;7.00;;;;;3.51;81.14;100794.38;5057315;28;9106;-64